createdAt,value
2019-05-12T00:00:39.240Z,101149.02
2019-05-12T00:01:40.969Z,101144.16
2019-05-12T00:02:42.352Z,101148.53
2019-05-12T00:03:43.732Z,101149.19
2019-05-12T00:04:45.120Z,101144.47
2019-05-12T00:05:48.317Z,101143.13
2019-05-12T00:06:49.802Z,101142.78
2019-05-12T00:07:51.306Z,101145.48
2019-05-12T00:08:52.679Z,101145.96
2019-05-12T00:09:55.186Z,101145.48
2019-05-12T00:10:58.260Z,101145.13
2019-05-12T00:11:59.766Z,101140.23
2019-05-12T00:13:01.332Z,101146.48
2019-05-12T00:14:02.738Z,101143.45
2019-05-12T00:15:04.650Z,101151.51
2019-05-12T00:16:08.624Z,101149.16
2019-05-12T00:17:09.475Z,101142.10
2019-05-12T00:18:10.893Z,101147.81
2019-05-12T00:19:12.297Z,101145.62
2019-05-12T00:20:13.699Z,101140.23
2019-05-12T00:21:15.184Z,101142.93
2019-05-12T00:22:18.669Z,101142.10
2019-05-12T00:23:27.466Z,101148.82
2019-05-12T00:24:23.394Z,101138.06
2019-05-12T00:25:24.797Z,101144.78
2019-05-12T00:26:28.220Z,101145.27
2019-05-12T00:27:29.610Z,101147.13
2019-05-12T00:28:32.117Z,101142.76
2019-05-12T00:29:33.592Z,101148.13
2019-05-12T00:30:38.800Z,101145.93
2019-05-12T00:31:40.187Z,101147.79
2019-05-12T00:32:41.596Z,101151.83
2019-05-12T00:33:43.013Z,101144.77
2019-05-12T00:34:44.426Z,101146.11
2019-05-12T00:35:48.134Z,101151.14
2019-05-12T00:36:49.245Z,101148.59
2019-05-12T00:37:50.624Z,101150.80
2019-05-12T00:38:52.051Z,101144.08
2019-05-12T00:39:53.417Z,101134.33
2019-05-12T00:40:54.812Z,101142.39
2019-05-12T00:41:58.491Z,101147.77
2019-05-12T00:42:59.518Z,101146.05
2019-05-12T00:44:00.928Z,101135.30
2019-05-12T00:45:07.899Z,101147.39
2019-05-12T00:46:08.849Z,101143.98
2019-05-12T00:47:10.254Z,101145.70
2019-05-12T00:48:11.629Z,101143.98
2019-05-12T00:49:13.028Z,101141.95
2019-05-12T00:50:14.396Z,101140.61
2019-05-12T00:51:18.020Z,101144.30
2019-05-12T00:52:19.526Z,101137.89
2019-05-12T00:53:20.937Z,101136.89
2019-05-12T00:54:22.350Z,101136.89
2019-05-12T00:55:23.867Z,101127.14
2019-05-12T00:56:25.283Z,101137.06
2019-05-12T00:57:28.620Z,101133.86
2019-05-12T00:58:29.960Z,101133.86
2019-05-12T00:59:31.360Z,101135.72
2019-05-12T01:00:32.728Z,101138.06
2019-05-12T01:01:34.335Z,101129.14
2019-05-12T01:02:37.967Z,101133.69
2019-05-12T01:03:39.236Z,101137.72
2019-05-12T01:04:40.644Z,101126.45
2019-05-12T01:05:42.057Z,101128.80
2019-05-12T01:06:43.469Z,101126.11
2019-05-12T01:07:44.969Z,101138.72
2019-05-12T01:08:48.332Z,101136.86
2019-05-12T01:09:49.640Z,101132.48
2019-05-12T01:10:51.022Z,101143.44
2019-05-12T01:11:52.430Z,101140.89
2019-05-12T01:12:53.820Z,101140.75
2019-05-12T01:13:55.320Z,101143.44
2019-05-12T01:14:58.538Z,101142.58
2019-05-12T01:16:00.054Z,101146.95
2019-05-12T01:17:01.457Z,101141.58
2019-05-12T01:18:02.855Z,101148.30
2019-05-12T01:19:04.227Z,101143.44
2019-05-12T01:20:08.669Z,101143.78
2019-05-12T01:21:09.639Z,101137.89
2019-05-12T01:22:11.000Z,101140.92
2019-05-12T01:23:12.448Z,101144.95
2019-05-12T01:24:13.832Z,101142.27
2019-05-12T01:25:17.490Z,101143.27
2019-05-12T01:26:18.492Z,101144.61
2019-05-12T01:27:19.872Z,101143.61
2019-05-12T01:28:21.323Z,101143.92
2019-05-12T01:29:22.716Z,101145.27
2019-05-12T01:30:24.105Z,101141.41
2019-05-12T01:31:28.568Z,101147.27
2019-05-12T01:32:38.257Z,101143.75
2019-05-12T01:33:39.870Z,101149.61
2019-05-12T01:34:41.248Z,101151.30
2019-05-12T01:35:42.648Z,101148.44
2019-05-12T01:36:44.025Z,101143.20
2019-05-12T01:37:45.422Z,101146.06
2019-05-12T01:38:48.272Z,101145.20
2019-05-12T01:39:52.099Z,101142.52
2019-05-12T01:40:53.489Z,101150.23
2019-05-12T01:41:54.875Z,101155.95
2019-05-12T01:42:58.157Z,101153.58
2019-05-12T01:43:59.669Z,101153.23
2019-05-12T01:45:01.146Z,101157.74
2019-05-12T01:46:02.540Z,101155.57
2019-05-12T01:47:03.916Z,101156.05
2019-05-12T01:48:08.307Z,101158.40
2019-05-12T01:49:09.041Z,101161.09
2019-05-12T01:50:10.818Z,101166.11
2019-05-12T01:51:12.200Z,101159.05
2019-05-12T01:52:13.812Z,101165.28
2019-05-12T01:53:15.281Z,101157.23
2019-05-12T01:54:18.699Z,101158.70
2019-05-12T01:55:19.968Z,101159.57
2019-05-12T01:56:21.368Z,101166.28
2019-05-12T01:57:22.749Z,101158.23
2019-05-12T01:58:27.647Z,101167.98
2019-05-12T01:59:29.532Z,101159.40
2019-05-12T02:00:31.145Z,101165.28
2019-05-12T02:01:32.567Z,101163.59
2019-05-12T02:02:34.085Z,101157.36
2019-05-12T02:03:37.542Z,101158.23
2019-05-12T02:04:58.805Z,101167.62
2019-05-12T02:06:02.133Z,101166.63
2019-05-12T02:07:08.971Z,101166.32
2019-05-12T02:08:14.756Z,101169.66
2019-05-12T02:09:18.737Z,101167.98
2019-05-12T02:10:20.837Z,101162.25
2019-05-12T02:11:31.444Z,101158.70
2019-05-12T02:12:32.851Z,101162.39
2019-05-12T02:13:35.261Z,101159.70
2019-05-12T02:14:38.196Z,101165.59
2019-05-12T02:15:40.093Z,101163.73
2019-05-12T02:16:41.472Z,101163.73
2019-05-12T02:17:42.872Z,101157.54
2019-05-12T02:18:44.243Z,101155.20
2019-05-12T02:19:47.972Z,101161.91
2019-05-12T02:20:48.945Z,101162.73
2019-05-12T02:21:50.354Z,101156.88
2019-05-12T02:22:51.737Z,101159.57
2019-05-12T02:23:53.198Z,101152.51
2019-05-12T02:24:54.576Z,101158.23
2019-05-12T02:25:55.981Z,101155.20
2019-05-12T02:26:57.885Z,101157.88
2019-05-12T02:27:59.358Z,101148.96
2019-05-12T02:29:00.768Z,101155.68
2019-05-12T02:30:03.179Z,101159.22
2019-05-12T02:31:04.670Z,101155.84
2019-05-12T02:32:06.065Z,101154.84
2019-05-12T02:33:07.456Z,101159.88
2019-05-12T02:34:08.837Z,101148.44
2019-05-12T02:35:10.523Z,101160.19
2019-05-12T02:36:14.893Z,101154.81
2019-05-12T02:37:15.517Z,101155.16
2019-05-12T02:38:16.958Z,101157.50
2019-05-12T02:39:18.525Z,101151.61
2019-05-12T02:40:20.021Z,101150.78
2019-05-12T02:41:21.402Z,101154.30
2019-05-12T02:42:24.452Z,101160.02
2019-05-12T02:43:26.392Z,101160.53
2019-05-12T02:44:27.794Z,101154.30
2019-05-12T02:45:29.166Z,101164.22
2019-05-12T02:46:30.703Z,101164.36
2019-05-12T02:47:34.713Z,101156.81
2019-05-12T02:48:35.713Z,101162.67
2019-05-12T02:49:37.350Z,101160.98
2019-05-12T02:50:38.856Z,101166.36
2019-05-12T02:51:40.440Z,101162.49
2019-05-12T02:52:44.256Z,101165.18
2019-05-12T02:53:46.966Z,101158.95
2019-05-12T02:54:55.673Z,101168.22
2019-05-12T02:55:54.331Z,101170.38
2019-05-12T02:56:56.511Z,101166.87
2019-05-12T02:57:58.477Z,101176.27
2019-05-12T02:59:04.870Z,101171.72
2019-05-12T03:00:05.844Z,101170.90
2019-05-12T03:01:08.451Z,101172.59
2019-05-12T03:02:10.543Z,101174.06
2019-05-12T03:03:14.973Z,101166.36
2019-05-12T03:04:17.918Z,101169.55
2019-05-12T03:05:19.305Z,101172.24
2019-05-12T03:06:20.698Z,101165.87
2019-05-12T03:07:25.511Z,101173.58
2019-05-12T03:08:27.773Z,101166.01
2019-05-12T03:09:29.565Z,101177.61
2019-05-12T03:10:31.142Z,101171.72
2019-05-12T03:11:35.413Z,101174.93
2019-05-12T03:12:38.124Z,101170.90
2019-05-12T03:13:39.523Z,101175.27
2019-05-12T03:14:43.895Z,101182.34
2019-05-12T03:15:44.659Z,101172.93
2019-05-12T03:16:46.210Z,101179.99
2019-05-12T03:17:47.602Z,101185.84
2019-05-12T03:18:48.992Z,101180.82
2019-05-12T03:19:50.385Z,101175.10
2019-05-12T03:20:54.099Z,101174.10
2019-05-12T03:21:55.082Z,101175.96
2019-05-12T03:22:56.582Z,101184.02
2019-05-12T03:23:57.952Z,101175.10
2019-05-12T03:25:11.368Z,101179.64
2019-05-12T03:26:05.185Z,101169.90
2019-05-12T03:27:05.994Z,101176.61
2019-05-12T03:28:09.501Z,101179.78
2019-05-12T03:29:10.684Z,101170.55
2019-05-12T03:30:17.913Z,101180.30
2019-05-12T03:31:22.509Z,101171.55
2019-05-12T03:32:18.893Z,101178.61
2019-05-12T03:33:20.661Z,101175.92
2019-05-12T03:34:22.314Z,101180.09
2019-05-12T03:35:32.525Z,101176.58
2019-05-12T03:36:33.108Z,101178.27
2019-05-12T03:37:31.217Z,101183.13
2019-05-12T03:38:36.050Z,101189.02
2019-05-12T03:39:36.345Z,101172.55
2019-05-12T03:40:38.885Z,101180.95
2019-05-12T03:41:40.489Z,101182.44
2019-05-12T03:42:44.460Z,101183.95
2019-05-12T03:43:45.182Z,101186.25
2019-05-12T03:44:47.678Z,101189.31
2019-05-12T03:45:49.051Z,101182.23
2019-05-12T03:46:50.457Z,101176.85
2019-05-12T03:47:54.635Z,101181.88
2019-05-12T03:48:55.538Z,101180.54
2019-05-12T03:49:57.071Z,101186.91
2019-05-12T03:50:58.480Z,101182.05
2019-05-12T03:51:59.915Z,101174.47
2019-05-12T03:53:08.399Z,101175.81
2019-05-12T03:54:05.320Z,101185.22
2019-05-12T03:55:26.202Z,101181.53
2019-05-12T03:56:10.599Z,101191.28
2019-05-12T03:57:14.837Z,101184.22
2019-05-12T03:58:15.602Z,101184.22
2019-05-12T03:59:17.995Z,101185.56
2019-05-12T04:00:19.990Z,101185.08
2019-05-12T04:01:21.378Z,101189.11
2019-05-12T04:02:25.108Z,101181.05
2019-05-12T04:03:26.072Z,101188.59
2019-05-12T04:04:27.442Z,101176.16
2019-05-12T04:05:28.855Z,101184.56
2019-05-12T04:06:30.215Z,101181.53
2019-05-12T04:07:34.448Z,101189.11
2019-05-12T04:08:35.069Z,101192.63
2019-05-12T04:09:36.610Z,101188.94
2019-05-12T04:10:37.997Z,101180.88
2019-05-12T04:11:39.490Z,101178.20
2019-05-12T04:12:44.841Z,101187.98
2019-05-12T04:13:45.481Z,101181.26
2019-05-12T04:14:46.850Z,101177.58
2019-05-12T04:15:48.358Z,101181.09
2019-05-12T04:16:49.765Z,101181.09
2019-05-12T04:17:54.108Z,101183.95
2019-05-12T04:18:55.346Z,101177.58
2019-05-12T04:19:56.921Z,101171.20
2019-05-12T04:20:58.318Z,101173.89
2019-05-12T04:21:59.695Z,101173.38
2019-05-12T04:23:01.096Z,101180.09
2019-05-12T04:24:05.532Z,101172.37
2019-05-12T04:25:06.449Z,101171.90
2019-05-12T04:26:12.069Z,101175.92
2019-05-12T04:27:14.807Z,101175.92
2019-05-12T04:28:15.289Z,101177.27
2019-05-12T04:29:16.861Z,101182.98
2019-05-12T04:30:18.248Z,101183.98
2019-05-12T04:31:19.642Z,101182.30
2019-05-12T04:32:21.234Z,101183.78
2019-05-12T04:33:25.568Z,101176.72
2019-05-12T04:34:25.929Z,101179.92
2019-05-12T04:35:27.304Z,101186.63
2019-05-12T04:36:28.716Z,101184.91
2019-05-12T04:37:30.084Z,101182.87
2019-05-12T04:38:31.488Z,101197.66
2019-05-12T04:39:34.105Z,101192.28
2019-05-12T04:40:36.507Z,101185.56
2019-05-12T04:41:38.179Z,101196.31
2019-05-12T04:42:39.669Z,101194.48
2019-05-12T04:43:41.068Z,101193.63
2019-05-12T04:44:44.816Z,101201.68
2019-05-12T04:45:45.768Z,101198.99
2019-05-12T04:46:47.175Z,101199.51
2019-05-12T04:47:48.577Z,101201.84
2019-05-12T04:48:49.972Z,101198.81
2019-05-12T04:49:54.463Z,101204.02
2019-05-12T04:50:54.967Z,101203.33
2019-05-12T04:51:56.460Z,101204.67
2019-05-12T04:52:57.858Z,101198.81
2019-05-12T04:53:59.252Z,101213.24
2019-05-12T04:55:00.658Z,101208.36
2019-05-12T04:56:11.440Z,101208.36
2019-05-12T04:57:05.503Z,101210.05
2019-05-12T04:58:07.002Z,101211.04
2019-05-12T04:59:08.396Z,101206.02
2019-05-12T05:00:10.184Z,101201.98
2019-05-12T05:01:15.162Z,101208.05
2019-05-12T05:02:15.517Z,101203.88
2019-05-12T05:03:17.112Z,101201.68
2019-05-12T05:04:18.556Z,101207.91
2019-05-12T05:05:20.053Z,101209.26
2019-05-12T05:06:21.430Z,101209.56
2019-05-12T05:07:24.446Z,101209.26
2019-05-12T05:08:26.012Z,101206.05
2019-05-12T05:09:27.417Z,101210.43
2019-05-12T05:10:28.828Z,101218.48
2019-05-12T05:11:30.219Z,101218.00
2019-05-12T05:12:34.486Z,101210.08
2019-05-12T05:13:39.565Z,101221.69
2019-05-12T05:14:40.561Z,101218.87
2019-05-12T05:15:44.352Z,101222.89
2019-05-12T05:16:45.524Z,101215.32
2019-05-12T05:17:46.984Z,101228.41
2019-05-12T05:18:48.366Z,101218.14
2019-05-12T05:19:49.776Z,101218.14
2019-05-12T05:20:51.193Z,101222.17
2019-05-12T05:21:54.176Z,101212.42
2019-05-12T05:22:55.717Z,101220.83
2019-05-12T05:23:57.138Z,101226.55
2019-05-12T05:24:58.558Z,101219.00
2019-05-12T05:25:59.953Z,101213.63
2019-05-12T05:27:01.328Z,101223.86
2019-05-12T05:28:04.082Z,101224.72
2019-05-12T05:29:05.648Z,101229.75
2019-05-12T05:30:07.045Z,101226.92
2019-05-12T05:31:08.430Z,101234.13
2019-05-12T05:32:09.836Z,101229.75
2019-05-12T05:33:11.266Z,101236.46
2019-05-12T05:34:14.626Z,101234.26
2019-05-12T05:35:15.981Z,101232.09
2019-05-12T05:36:19.800Z,101233.91
2019-05-12T05:37:20.656Z,101237.94
2019-05-12T05:38:23.682Z,101247.69
2019-05-12T05:39:25.261Z,101240.28
2019-05-12T05:40:30.289Z,101242.31
2019-05-12T05:41:30.169Z,101236.59
2019-05-12T05:42:35.059Z,101242.48
2019-05-12T05:43:35.204Z,101239.80
2019-05-12T05:44:38.135Z,101238.59
2019-05-12T05:45:39.860Z,101239.45
2019-05-12T05:46:48.192Z,101246.30
2019-05-12T05:47:44.649Z,101251.19
2019-05-12T05:48:46.045Z,101240.10
2019-05-12T05:49:47.420Z,101258.56
2019-05-12T05:50:48.823Z,101250.16
2019-05-12T05:51:54.452Z,101249.30
2019-05-12T05:52:54.284Z,101243.44
2019-05-12T05:53:55.789Z,101257.70
2019-05-12T05:54:57.200Z,101250.98
2019-05-12T05:56:00.267Z,101251.33
2019-05-12T05:57:03.055Z,101258.39
2019-05-12T05:58:10.067Z,101248.16
2019-05-12T05:59:08.610Z,101255.36
2019-05-12T06:00:17.265Z,101253.87
2019-05-12T06:01:13.918Z,101247.64
2019-05-12T06:02:16.496Z,101243.62
2019-05-12T06:03:23.183Z,101262.42
2019-05-12T06:04:23.634Z,101262.08
2019-05-12T06:05:26.458Z,101263.77
2019-05-12T06:06:27.964Z,101258.21
2019-05-12T06:07:34.979Z,101266.31
2019-05-12T06:08:33.794Z,101263.11
2019-05-12T06:09:35.343Z,101262.11
2019-05-12T06:10:40.392Z,101266.01
2019-05-12T06:11:40.035Z,101254.96
2019-05-12T06:12:48.648Z,101264.92
2019-05-12T06:13:44.748Z,101263.41
2019-05-12T06:14:54.339Z,101260.28
2019-05-12T06:15:49.533Z,101264.66
2019-05-12T06:16:50.940Z,101260.67
2019-05-12T06:17:53.810Z,101261.70
2019-05-12T06:18:55.351Z,101268.81
2019-05-12T06:19:56.849Z,101262.13
2019-05-12T06:20:58.238Z,101265.72
2019-05-12T06:21:59.639Z,101271.61
2019-05-12T06:23:01.047Z,101265.93
2019-05-12T06:24:03.517Z,101270.55
2019-05-12T06:25:05.339Z,101265.73
2019-05-12T06:26:06.688Z,101272.97
2019-05-12T06:27:15.210Z,101269.48
2019-05-12T06:28:11.417Z,101265.48
2019-05-12T06:29:20.106Z,101259.97
2019-05-12T06:30:16.493Z,101274.31
2019-05-12T06:31:18.949Z,101271.17
2019-05-12T06:32:21.171Z,101276.58
2019-05-12T06:33:31.287Z,101285.16
2019-05-12T06:34:25.847Z,101287.41
2019-05-12T06:35:30.914Z,101281.22
2019-05-12T06:36:30.525Z,101282.59
2019-05-12T06:37:33.875Z,101282.77
2019-05-12T06:38:38.686Z,101276.94
2019-05-12T06:39:38.535Z,101294.45
2019-05-12T06:40:42.317Z,101299.52
2019-05-12T06:41:44.393Z,101286.43
2019-05-12T06:42:51.677Z,101281.42
2019-05-12T06:43:49.214Z,101293.21
2019-05-12T06:44:54.884Z,101287.55
2019-05-12T06:45:54.946Z,101292.61
2019-05-12T06:47:03.497Z,101289.97
2019-05-12T06:47:59.638Z,101288.31
2019-05-12T06:49:10.145Z,101297.75
2019-05-12T06:50:04.956Z,101297.92
2019-05-12T06:51:09.091Z,101289.87
2019-05-12T06:52:09.680Z,101293.59
2019-05-12T06:53:13.770Z,101289.41
2019-05-12T06:54:15.201Z,101287.73
2019-05-12T06:55:16.871Z,101304.58
2019-05-12T06:56:19.878Z,101294.00
2019-05-12T06:57:26.179Z,101300.90
2019-05-12T06:58:27.669Z,101300.23
2019-05-12T06:59:28.534Z,101299.91
2019-05-12T07:00:30.775Z,101296.07
2019-05-12T07:01:33.588Z,101308.35
2019-05-12T07:02:44.566Z,101304.51
2019-05-12T07:03:38.400Z,101304.70
2019-05-12T07:04:41.191Z,101307.73
2019-05-12T07:05:45.178Z,101311.11
2019-05-12T07:06:49.855Z,101301.51
2019-05-12T07:07:49.692Z,101310.27
2019-05-12T07:09:02.356Z,101311.13
2019-05-12T07:09:57.124Z,101313.16
2019-05-12T07:11:01.692Z,101310.47
2019-05-12T07:12:06.182Z,101300.86
2019-05-12T07:13:05.756Z,101311.48
2019-05-12T07:14:13.378Z,101315.02
2019-05-12T07:15:11.068Z,101315.02
2019-05-12T07:16:19.145Z,101308.80
2019-05-12T07:17:37.266Z,101307.79
2019-05-12T07:18:37.800Z,101325.64
2019-05-12T07:19:39.503Z,101319.93
2019-05-12T07:20:40.895Z,101316.55
2019-05-12T07:21:43.964Z,101325.13
2019-05-12T07:22:48.483Z,101314.87
2019-05-12T07:23:48.840Z,101318.56
2019-05-12T07:24:51.944Z,101329.00
2019-05-12T07:25:54.999Z,101327.31
2019-05-12T07:27:04.196Z,101325.97
2019-05-12T07:28:01.520Z,101333.70
2019-05-12T07:29:04.405Z,101333.85
2019-05-12T07:30:06.564Z,101330.33
2019-05-12T07:31:07.953Z,101329.98
2019-05-12T07:32:16.242Z,101338.08
2019-05-12T07:33:14.612Z,101334.03
2019-05-12T07:34:16.280Z,101341.25
2019-05-12T07:35:17.665Z,101334.03
2019-05-12T07:36:19.687Z,101340.77
2019-05-12T07:37:23.642Z,101338.55
2019-05-12T07:38:27.061Z,101337.73
2019-05-12T07:39:28.640Z,101336.20
2019-05-12T07:40:33.775Z,101340.77
2019-05-12T07:41:42.441Z,101340.77
2019-05-12T07:42:40.536Z,101339.42
2019-05-12T07:43:44.314Z,101342.11
2019-05-12T07:44:48.016Z,101344.63
2019-05-12T07:45:53.902Z,101356.27
2019-05-12T07:46:54.266Z,101350.53
2019-05-12T07:47:59.358Z,101344.29
2019-05-12T07:48:59.077Z,101354.23
2019-05-12T07:50:00.486Z,101355.23
2019-05-12T07:51:04.022Z,101360.62
2019-05-12T07:52:05.387Z,101352.55
2019-05-12T07:53:06.764Z,101355.23
2019-05-12T07:54:08.164Z,101368.37
2019-05-12T07:55:09.537Z,101370.20
2019-05-12T07:56:10.939Z,101374.24
2019-05-12T07:57:17.280Z,101361.63
2019-05-12T07:58:19.029Z,101375.59
2019-05-12T07:59:18.970Z,101368.03
2019-05-12T08:00:21.621Z,101372.21
2019-05-12T08:01:23.717Z,101376.11
2019-05-12T08:02:31.810Z,101364.98
2019-05-12T08:03:28.509Z,101378.46
2019-05-12T08:04:31.768Z,101383.50
2019-05-12T08:05:33.912Z,101382.64
2019-05-12T08:06:41.550Z,101383.16
2019-05-12T08:07:38.784Z,101378.78
2019-05-12T08:08:41.892Z,101382.81
2019-05-12T08:09:43.508Z,101402.64
2019-05-12T08:10:44.918Z,101393.73
2019-05-12T08:11:46.333Z,101398.27
2019-05-12T08:12:51.050Z,101393.53
2019-05-12T08:14:59.287Z,101401.62
2019-05-12T08:15:59.035Z,101401.27
2019-05-12T08:17:01.916Z,101392.71
2019-05-12T08:18:07.629Z,101393.20
2019-05-12T08:19:08.541Z,101397.89
2019-05-12T08:20:10.440Z,101397.55
2019-05-12T08:21:13.826Z,101393.17
2019-05-12T08:22:22.366Z,101395.52
2019-05-12T08:23:19.484Z,101396.18
2019-05-12T08:24:20.885Z,101393.48
2019-05-12T08:25:27.047Z,101395.01
2019-05-12T08:26:25.670Z,101397.84
2019-05-12T08:28:35.706Z,101397.67
2019-05-12T08:29:34.225Z,101407.93
2019-05-12T08:30:40.359Z,101407.93
2019-05-12T08:31:40.822Z,101420.05
2019-05-12T08:32:44.381Z,101421.05
2019-05-12T08:33:45.717Z,101421.56
2019-05-12T08:34:47.112Z,101417.67
2019-05-12T08:35:48.508Z,101405.20
2019-05-12T08:36:53.077Z,101425.41
2019-05-12T08:37:54.423Z,101423.72
2019-05-12T08:38:55.893Z,101416.98
2019-05-12T08:40:03.251Z,101419.67
2019-05-12T08:41:00.573Z,101430.45
2019-05-12T08:42:04.071Z,101423.23
2019-05-12T08:43:10.279Z,101429.59
2019-05-12T08:44:08.946Z,101437.17
2019-05-12T08:45:15.219Z,101431.31
2019-05-12T08:46:15.738Z,101440.22
2019-05-12T08:47:17.030Z,101449.16
2019-05-12T08:48:21.670Z,101451.84
2019-05-12T08:49:23.468Z,101443.25
2019-05-12T08:50:31.440Z,101457.23
2019-05-12T08:51:28.416Z,101450.84
2019-05-12T08:52:30.721Z,101452.19
2019-05-12T08:53:33.712Z,101461.09
2019-05-12T08:54:39.655Z,101458.41
2019-05-12T08:55:38.480Z,101455.71
2019-05-12T08:56:39.891Z,101464.66
2019-05-12T08:57:47.166Z,101460.76
2019-05-12T08:58:51.235Z,101465.14
2019-05-12T08:59:48.116Z,101462.45
2019-05-12T09:00:50.513Z,101459.27
2019-05-12T09:01:54.092Z,101468.34
2019-05-12T09:02:55.488Z,101466.34
2019-05-12T09:04:00.349Z,101468.17
2019-05-12T09:05:01.176Z,101471.73
2019-05-12T09:06:04.066Z,101464.66
2019-05-12T09:07:05.708Z,101475.42
2019-05-12T09:08:07.111Z,101472.73
2019-05-12T09:09:08.614Z,101479.12
2019-05-12T09:10:10.047Z,101471.88
2019-05-12T09:11:13.762Z,101475.08
2019-05-12T09:12:15.829Z,101471.04
2019-05-12T09:13:17.313Z,101483.98
2019-05-12T09:14:18.708Z,101492.58
2019-05-12T09:15:20.272Z,101491.72
2019-05-12T09:16:24.244Z,101484.64
2019-05-12T09:17:25.110Z,101491.89
2019-05-12T09:18:33.493Z,101493.24
2019-05-12T09:19:29.842Z,101493.24
2019-05-12T09:20:33.084Z,101491.37
2019-05-12T09:21:37.165Z,101491.03
2019-05-12T09:22:38.723Z,101487.34
2019-05-12T09:23:41.359Z,101506.70
2019-05-12T09:24:44.095Z,101491.52
2019-05-12T09:25:48.424Z,101499.59
2019-05-12T09:26:49.055Z,101512.58
2019-05-12T09:27:50.464Z,101513.44
2019-05-12T09:28:54.169Z,101514.61
2019-05-12T09:29:59.084Z,101515.30
2019-05-12T09:30:58.580Z,101521.37
2019-05-12T09:32:06.751Z,101516.16
2019-05-12T09:33:04.037Z,101525.08
2019-05-12T09:34:11.617Z,101519.69
2019-05-12T09:35:09.317Z,101521.03
2019-05-12T09:36:11.459Z,101527.77
2019-05-12T09:37:14.313Z,101514.95
2019-05-12T09:38:26.453Z,101530.63
2019-05-12T09:39:20.384Z,101505.53
2019-05-12T09:40:22.662Z,101528.08
2019-05-12T09:41:26.403Z,101527.25
2019-05-12T09:42:30.016Z,101530.42
2019-05-12T09:43:31.087Z,101534.12
2019-05-12T09:44:34.016Z,101535.12
2019-05-12T09:45:40.744Z,101532.77
2019-05-12T09:46:39.098Z,101540.84
2019-05-12T09:47:40.509Z,101537.81
2019-05-12T09:48:46.973Z,101529.04
2019-05-12T09:49:45.324Z,101534.42
2019-05-12T09:50:51.511Z,101536.60
2019-05-12T09:51:50.072Z,101536.77
2019-05-12T09:52:55.386Z,101542.64
2019-05-12T09:53:55.618Z,101536.91
2019-05-12T09:54:57.133Z,101546.50
2019-05-12T09:55:58.707Z,101541.26
2019-05-12T09:57:00.181Z,101542.77
2019-05-12T09:58:03.796Z,101549.51
2019-05-12T09:59:17.301Z,101548.81
2019-05-12T10:00:08.848Z,101552.34
2019-05-12T10:01:10.355Z,101554.68
2019-05-12T10:02:16.495Z,101552.51
2019-05-12T10:03:15.071Z,101562.92
2019-05-12T10:04:19.564Z,101541.39
2019-05-12T10:05:19.790Z,101565.27
2019-05-12T10:06:21.573Z,101553.81
2019-05-12T10:07:23.016Z,101559.33
2019-05-12T10:08:29.201Z,101553.77
2019-05-12T10:09:27.793Z,101561.33
2019-05-12T10:10:34.393Z,101559.16
2019-05-12T10:11:32.476Z,101562.33
2019-05-12T10:12:36.626Z,101572.23
2019-05-12T10:13:37.189Z,101572.89
2019-05-12T10:14:40.761Z,101576.92
2019-05-12T10:15:42.060Z,101559.43
2019-05-12T10:16:45.572Z,101559.73
2019-05-12T10:17:46.884Z,101576.23
2019-05-12T10:18:51.293Z,101570.02
2019-05-12T10:19:56.171Z,101574.05
2019-05-12T10:20:54.862Z,101571.50
2019-05-12T10:21:59.478Z,101575.53
2019-05-12T10:22:59.558Z,101579.23
2019-05-12T10:24:04.492Z,101578.36
2019-05-12T10:25:05.581Z,101586.92
2019-05-12T10:26:10.415Z,101573.46
2019-05-12T10:27:10.301Z,101580.70
2019-05-12T10:28:13.136Z,101587.57
2019-05-12T10:29:20.895Z,101575.45
2019-05-12T10:30:23.461Z,101587.09
2019-05-12T10:31:29.685Z,101585.09
2019-05-12T10:32:28.326Z,101585.74
2019-05-12T10:33:29.714Z,101579.70
2019-05-12T10:34:35.820Z,101581.53
2019-05-12T10:35:35.328Z,101579.84
2019-05-12T10:36:39.219Z,101582.88
2019-05-12T10:37:40.764Z,101592.81
2019-05-12T10:38:43.467Z,101600.89
2019-05-12T10:39:44.845Z,101589.99
2019-05-12T10:40:48.264Z,101587.44
2019-05-12T10:41:49.673Z,101594.16
2019-05-12T10:42:53.423Z,101595.38
2019-05-12T10:43:57.746Z,101611.05
2019-05-12T10:44:57.756Z,101593.65
2019-05-12T10:45:59.324Z,101593.65
2019-05-12T10:47:04.216Z,101611.14
2019-05-12T10:48:05.601Z,101607.48
2019-05-12T10:49:07.062Z,101602.11
2019-05-12T10:50:08.770Z,101598.55
2019-05-12T10:51:10.186Z,101598.20
2019-05-12T10:52:13.801Z,101607.63
2019-05-12T10:53:16.207Z,101619.38
2019-05-12T10:54:18.436Z,101623.25
2019-05-12T10:55:19.809Z,101613.00
2019-05-12T10:56:23.448Z,101622.56
2019-05-12T10:57:24.492Z,101619.38
2019-05-12T10:58:26.092Z,101618.52
2019-05-12T10:59:32.852Z,101630.80
2019-05-12T11:00:30.988Z,101637.02
2019-05-12T11:01:32.493Z,101633.33
2019-05-12T11:02:33.908Z,101625.25
2019-05-12T11:03:35.320Z,101629.45
2019-05-12T11:04:41.092Z,101639.58
2019-05-12T11:05:40.101Z,101644.61
2019-05-12T11:06:44.751Z,101635.53
2019-05-12T11:07:44.780Z,101644.39
2019-05-12T11:08:47.424Z,101638.36
2019-05-12T11:09:49.486Z,101635.84
2019-05-12T11:10:57.573Z,101646.08
2019-05-12T11:11:54.420Z,101651.47
2019-05-12T11:12:59.185Z,101646.95
2019-05-12T11:13:59.150Z,101650.98
2019-05-12T11:15:01.160Z,101649.47
2019-05-12T11:16:04.104Z,101656.72
2019-05-12T11:17:09.148Z,101652.17
2019-05-12T11:18:11.463Z,101661.23
2019-05-12T11:19:13.738Z,101653.16
2019-05-12T11:20:15.277Z,101652.17
2019-05-12T11:21:16.653Z,101655.72
2019-05-12T11:22:18.045Z,101661.89
2019-05-12T11:23:19.425Z,101664.44
2019-05-12T11:24:20.825Z,101660.75
2019-05-12T11:25:24.109Z,101662.58
2019-05-12T11:26:25.510Z,101667.97
2019-05-12T11:27:26.897Z,101675.05
2019-05-12T11:28:28.290Z,101677.25
2019-05-12T11:29:43.263Z,101673.91
2019-05-12T11:30:34.521Z,101680.64
2019-05-12T11:31:36.353Z,101679.78
2019-05-12T11:32:38.066Z,101682.47
2019-05-12T11:33:39.634Z,101683.81
2019-05-12T11:34:41.036Z,101671.70
2019-05-12T11:35:43.481Z,101684.68
2019-05-12T11:36:45.038Z,101694.10
2019-05-12T11:37:46.425Z,101688.23
2019-05-12T11:38:47.824Z,101679.68
2019-05-12T11:39:50.226Z,101691.41
2019-05-12T11:40:53.724Z,101693.14
2019-05-12T11:41:55.514Z,101693.14
2019-05-12T11:43:00.908Z,101692.27
2019-05-12T11:44:00.248Z,101716.12
2019-05-12T11:45:01.650Z,101701.21
2019-05-12T11:46:03.027Z,101714.42
2019-05-12T11:47:04.489Z,101718.45
2019-05-12T11:48:09.973Z,101719.80
2019-05-12T11:49:09.734Z,101727.88
2019-05-12T11:50:13.256Z,101724.84
2019-05-12T11:51:14.744Z,101732.08
2019-05-12T11:52:19.456Z,101738.81
2019-05-12T11:53:21.795Z,101739.16